Terminal Aerodrome Forecast
Issued by NWS

Home | Current Version | Previous Version | Text Only | Print | Product List | Glossary On
Versions: 1 2 3 4 5 6 7 8 9 10 11 12 13
000
FTUS44 KLZK 240500 RRA
TAFLIT
TAF
KLIT 240540Z 2406/2506 12006KT P6SM BKN050
      TEMPO 2412/2416 5SM -TSRA BR OVC015CB
     FM241600 16010G18KT P6SM VCTS SCT025 OVC050CB PROB30 2421/2503
      4SM TSRA BR OVC025CB
     FM250300 16008G18KT P6SM VCTS OVC025CB=

USA.gov is the U.S. government's official web portal to all federal, state and local government web resources and services.